createdAt,value
2022-09-28T00:00:00.321Z,7.83
2022-09-28T00:01:00.312Z,7.83
2022-09-28T00:02:00.465Z,7.93
2022-09-28T00:03:00.404Z,7.93
2022-09-28T00:04:00.351Z,7.93
2022-09-28T00:05:00.365Z,8.01
2022-09-28T00:06:00.378Z,7.91
2022-09-28T00:07:00.398Z,7.93
2022-09-28T00:08:00.406Z,7.93
2022-09-28T00:09:00.418Z,7.87
2022-09-28T00:10:00.464Z,7.93
2022-09-28T00:11:00.451Z,7.90
2022-09-28T00:12:00.460Z,7.85
2022-09-28T00:13:00.470Z,7.88
2022-09-28T00:14:00.489Z,7.87
2022-09-28T00:15:00.499Z,7.87
2022-09-28T00:16:00.546Z,7.95
2022-09-28T00:17:00.527Z,7.87
2022-09-28T00:18:00.539Z,7.90
2022-09-28T00:19:00.554Z,7.85
2022-09-28T00:20:00.565Z,7.81
2022-09-28T00:21:00.578Z,7.84
2022-09-28T00:22:00.596Z,7.93
2022-09-28T00:23:00.603Z,7.83
2022-09-28T00:24:00.617Z,7.85
2022-09-28T00:25:00.631Z,7.85
2022-09-28T00:26:00.648Z,7.83
2022-09-28T00:27:00.657Z,7.93
2022-09-28T00:28:00.672Z,7.93
2022-09-28T00:29:00.686Z,7.87
2022-09-28T00:30:00.698Z,7.90
2022-09-28T00:31:00.708Z,7.85
2022-09-28T00:32:00.816Z,7.85
2022-09-28T00:33:00.739Z,7.93
2022-09-28T00:34:00.751Z,7.87
2022-09-28T00:35:00.766Z,7.91
2022-09-28T00:36:00.780Z,7.91
2022-09-28T00:37:00.789Z,7.93
2022-09-28T00:38:00.803Z,7.90
2022-09-28T00:39:00.818Z,7.95
2022-09-28T00:40:00.828Z,7.95
2022-09-28T00:41:00.874Z,7.93
2022-09-28T00:42:00.857Z,7.93
2022-09-28T00:43:00.870Z,7.93
2022-09-28T00:44:00.882Z,7.95
2022-09-28T00:45:00.897Z,8.01
2022-09-28T00:46:00.977Z,7.98
2022-09-28T00:47:00.922Z,7.98
2022-09-28T00:48:00.938Z,8.01
2022-09-28T00:49:00.950Z,8.02
2022-09-28T00:50:00.965Z,8.02
2022-09-28T00:51:00.976Z,8.01
2022-09-28T00:52:00.989Z,8.03
2022-09-28T00:53:01.003Z,8.02
2022-09-28T00:54:01.019Z,8.01
2022-09-28T00:55:01.034Z,8.02
2022-09-28T00:56:01.117Z,8.01
2022-09-28T00:57:01.059Z,8.03
2022-09-28T00:58:01.071Z,8.06
2022-09-28T00:59:01.083Z,8.06
2022-09-28T01:00:01.099Z,8.08
2022-09-28T01:01:01.233Z,8.09
2022-09-28T01:02:01.158Z,8.11
2022-09-28T01:03:01.140Z,8.09
2022-09-28T01:04:01.152Z,8.11
2022-09-28T01:05:01.165Z,8.11
2022-09-28T01:06:01.182Z,8.09
2022-09-28T01:07:01.193Z,8.05
2022-09-28T01:08:01.205Z,8.17
2022-09-28T01:09:01.219Z,8.08
2022-09-28T01:10:01.236Z,8.09
2022-09-28T01:11:01.248Z,8.16
2022-09-28T01:12:01.258Z,8.05
2022-09-28T01:13:01.278Z,8.11
2022-09-28T01:14:01.293Z,8.06
2022-09-28T01:15:01.300Z,8.18
2022-09-28T01:16:01.385Z,8.08
2022-09-28T01:17:01.341Z,8.23
2022-09-28T01:18:01.359Z,8.20
2022-09-28T01:19:01.365Z,8.23
2022-09-28T01:20:01.383Z,8.21
2022-09-28T01:21:01.383Z,8.21
2022-09-28T01:22:01.397Z,8.23
2022-09-28T01:23:01.407Z,8.23
2022-09-28T01:24:01.425Z,8.23
2022-09-28T01:25:01.435Z,8.24
2022-09-28T01:26:01.448Z,8.23
2022-09-28T01:27:01.462Z,8.21
2022-09-28T01:28:01.477Z,8.21
2022-09-28T01:29:01.492Z,8.16
2022-09-28T01:30:01.504Z,8.26
2022-09-28T01:31:01.517Z,8.24
2022-09-28T01:32:01.552Z,8.20
2022-09-28T01:33:01.557Z,8.27
2022-09-28T01:34:01.559Z,8.21
2022-09-28T01:35:01.571Z,8.23
2022-09-28T01:36:01.583Z,8.21
2022-09-28T01:37:01.603Z,8.16
2022-09-28T01:38:01.631Z,8.23
2022-09-28T01:39:01.629Z,8.18
2022-09-28T01:40:01.652Z,8.21
2022-09-28T01:41:01.651Z,8.20
2022-09-28T01:42:01.665Z,8.21
2022-09-28T01:43:01.688Z,8.21
2022-09-28T01:44:01.690Z,8.24
2022-09-28T01:45:01.707Z,8.24
2022-09-28T01:46:01.803Z,8.27
2022-09-28T01:47:01.735Z,8.23
2022-09-28T01:48:01.747Z,8.14
2022-09-28T01:49:01.761Z,8.20
2022-09-28T01:50:01.807Z,8.23
2022-09-28T01:51:01.790Z,8.23
2022-09-28T01:52:01.803Z,8.20
2022-09-28T01:53:01.816Z,8.20
2022-09-28T01:54:01.831Z,8.23
2022-09-28T01:55:01.845Z,8.21
2022-09-28T01:56:01.856Z,8.21
2022-09-28T01:57:01.872Z,8.20
2022-09-28T01:58:01.886Z,8.20
2022-09-28T01:59:01.897Z,8.09
2022-09-28T02:00:01.912Z,8.21
2022-09-28T02:01:01.979Z,8.18
2022-09-28T02:02:02.024Z,8.09
2022-09-28T02:03:01.953Z,8.08
2022-09-28T02:04:01.964Z,8.14
2022-09-28T02:05:01.982Z,8.14
2022-09-28T02:06:01.993Z,8.21
2022-09-28T02:07:02.005Z,8.08
2022-09-28T02:08:02.019Z,8.06
2022-09-28T02:09:02.035Z,8.09
2022-09-28T02:10:02.047Z,8.13
2022-09-28T02:11:02.059Z,8.13
2022-09-28T02:12:02.073Z,8.09
2022-09-28T02:13:02.087Z,8.06
2022-09-28T02:14:02.127Z,8.09
2022-09-28T02:15:02.112Z,8.11
2022-09-28T02:16:02.171Z,8.05
2022-09-28T02:17:02.140Z,8.09
2022-09-28T02:18:02.155Z,8.06
2022-09-28T02:19:02.168Z,8.14
2022-09-28T02:20:02.184Z,8.08
2022-09-28T02:21:02.195Z,8.09
2022-09-28T02:22:02.208Z,8.09
2022-09-28T02:23:02.222Z,8.13
2022-09-28T02:24:02.234Z,8.09
2022-09-28T02:25:02.248Z,8.08
2022-09-28T02:26:02.261Z,8.08
2022-09-28T02:27:02.275Z,8.09
2022-09-28T02:28:02.288Z,8.03
2022-09-28T02:29:02.305Z,8.05
2022-09-28T02:30:02.316Z,8.05
2022-09-28T02:31:02.463Z,8.02
2022-09-28T02:32:02.342Z,7.99
2022-09-28T02:33:02.356Z,8.02
2022-09-28T02:34:02.369Z,8.01
2022-09-28T02:35:02.381Z,8.01
2022-09-28T02:36:02.396Z,8.01
2022-09-28T02:37:02.409Z,7.99
2022-09-28T02:38:02.422Z,7.99
2022-09-28T02:39:02.435Z,7.93
2022-09-28T02:40:02.450Z,8.01
2022-09-28T02:41:02.463Z,7.99
2022-09-28T02:42:02.477Z,7.96
2022-09-28T02:43:02.492Z,7.98
2022-09-28T02:44:02.502Z,7.95
2022-09-28T02:45:02.515Z,7.93
2022-09-28T02:46:02.572Z,7.95
2022-09-28T02:47:02.543Z,7.93
2022-09-28T02:48:02.554Z,7.88
2022-09-28T02:49:20.331Z,7.98
2022-09-28T02:50:02.582Z,7.88
2022-09-28T02:51:02.598Z,7.90
2022-09-28T02:52:02.609Z,7.93
2022-09-28T02:53:02.623Z,7.93
2022-09-28T02:54:02.637Z,7.90
2022-09-28T02:55:02.649Z,7.88
2022-09-28T02:56:02.664Z,7.87
2022-09-28T02:57:02.674Z,7.80
2022-09-28T02:58:02.688Z,7.91
2022-09-28T02:59:02.704Z,7.99
2022-09-28T03:00:02.715Z,7.90
2022-09-28T03:01:02.793Z,7.84
2022-09-28T03:02:02.786Z,7.88
2022-09-28T03:03:02.756Z,7.87
2022-09-28T03:04:02.767Z,7.90
2022-09-28T03:05:02.781Z,7.84
2022-09-28T03:06:02.795Z,7.84
2022-09-28T03:07:02.808Z,7.87
2022-09-28T03:08:02.820Z,7.91
2022-09-28T03:09:02.833Z,7.87
2022-09-28T03:10:02.849Z,7.83
2022-09-28T03:11:02.864Z,7.77
2022-09-28T03:12:02.877Z,7.77
2022-09-28T03:13:02.888Z,7.72
2022-09-28T03:14:02.900Z,7.67
2022-09-28T03:15:02.913Z,7.75
2022-09-28T03:16:02.971Z,7.74
2022-09-28T03:17:02.942Z,7.66
2022-09-28T03:18:02.961Z,7.61
2022-09-28T03:19:02.964Z,7.62
2022-09-28T03:20:02.977Z,7.59
2022-09-28T03:21:02.991Z,7.62
2022-09-28T03:22:03.004Z,7.64
2022-09-28T03:23:26.031Z,7.50
2022-09-28T03:24:03.038Z,7.53
2022-09-28T03:25:03.047Z,7.58
2022-09-28T03:26:03.057Z,7.53
2022-09-28T03:27:03.070Z,7.51
2022-09-28T03:28:03.082Z,7.48
2022-09-28T03:29:03.093Z,7.43
2022-09-28T03:30:03.108Z,7.43
2022-09-28T03:31:03.144Z,7.43
2022-09-28T03:32:03.133Z,7.40
2022-09-28T03:33:03.154Z,7.40
2022-09-28T03:34:03.160Z,7.28
2022-09-28T03:35:03.177Z,7.29
2022-09-28T03:36:03.193Z,7.26
2022-09-28T03:37:03.198Z,7.21
2022-09-28T03:38:03.213Z,7.28
2022-09-28T03:39:03.224Z,7.15
2022-09-28T03:40:03.240Z,7.23
2022-09-28T03:41:03.316Z,7.23
2022-09-28T03:42:03.267Z,7.21
2022-09-28T03:43:03.280Z,7.01
2022-09-28T03:44:03.289Z,7.07
2022-09-28T03:45:03.300Z,7.10
2022-09-28T03:46:03.433Z,7.08
2022-09-28T03:47:03.325Z,7.01
2022-09-28T03:48:03.339Z,7.03
2022-09-28T03:49:03.350Z,7.00
2022-09-28T03:50:03.367Z,6.90
2022-09-28T03:51:03.377Z,6.96
2022-09-28T03:52:03.387Z,6.95
2022-09-28T03:53:03.403Z,6.92
2022-09-28T03:54:03.413Z,6.85
2022-09-28T03:55:03.428Z,6.95
2022-09-28T03:56:03.440Z,6.82
2022-09-28T03:57:03.451Z,6.83
2022-09-28T03:58:03.465Z,6.75
2022-09-28T03:59:03.475Z,6.77
2022-09-28T04:00:03.488Z,6.77
2022-09-28T04:01:03.572Z,6.68
2022-09-28T04:02:03.577Z,6.75
2022-09-28T04:03:03.525Z,6.67
2022-09-28T04:04:03.538Z,6.67
2022-09-28T04:05:03.551Z,6.64
2022-09-28T04:06:03.562Z,6.64
2022-09-28T04:07:03.578Z,6.57
2022-09-28T04:08:03.589Z,6.57
2022-09-28T04:09:03.602Z,6.68
2022-09-28T04:10:03.613Z,6.50
2022-09-28T04:11:03.648Z,6.49
2022-09-28T04:12:04.513Z,6.47
2022-09-28T04:13:03.654Z,6.41
2022-09-28T04:14:03.665Z,6.50
2022-09-28T04:15:03.678Z,6.49
2022-09-28T04:16:03.723Z,6.50
2022-09-28T04:17:03.697Z,6.43
2022-09-28T04:18:03.711Z,6.49
2022-09-28T04:19:03.722Z,6.47
2022-09-28T04:20:03.736Z,6.36
2022-09-28T04:21:03.759Z,6.36
2022-09-28T04:22:03.759Z,6.35
2022-09-28T04:23:03.771Z,6.43
2022-09-28T04:24:03.783Z,6.44
2022-09-28T04:25:03.801Z,6.47
2022-09-28T04:26:03.808Z,6.44
2022-09-28T04:27:03.824Z,6.43
2022-09-28T04:28:03.834Z,6.46
2022-09-28T04:29:06.596Z,6.47
2022-09-28T04:30:03.859Z,6.47
2022-09-28T04:31:03.875Z,6.49
2022-09-28T04:32:03.931Z,6.46
2022-09-28T04:33:03.894Z,6.44
2022-09-28T04:34:03.907Z,6.56
2022-09-28T04:35:03.920Z,6.50
2022-09-28T04:36:03.931Z,6.56
2022-09-28T04:37:03.944Z,6.57
2022-09-28T04:38:03.956Z,6.59
2022-09-28T04:39:03.967Z,6.57
2022-09-28T04:40:03.977Z,6.68
2022-09-28T04:41:03.995Z,6.68
2022-09-28T04:42:04.006Z,6.78
2022-09-28T04:43:04.016Z,6.78
2022-09-28T04:44:04.029Z,6.75
2022-09-28T04:45:04.043Z,6.75
2022-09-28T04:46:04.097Z,6.78
2022-09-28T04:47:05.264Z,6.78
2022-09-28T04:48:04.079Z,6.87
2022-09-28T04:49:04.093Z,6.78
2022-09-28T04:50:04.106Z,6.86
2022-09-28T04:51:04.119Z,6.83
2022-09-28T04:52:04.132Z,6.82
2022-09-28T04:53:04.142Z,6.82
2022-09-28T04:54:04.157Z,6.77
2022-09-28T04:55:04.168Z,6.80
2022-09-28T04:56:04.181Z,6.83
2022-09-28T04:57:04.193Z,6.85
2022-09-28T04:58:04.206Z,6.78
2022-09-28T04:59:04.219Z,6.85
2022-09-28T05:00:04.231Z,6.83
2022-09-28T05:01:04.281Z,6.83
2022-09-28T05:02:04.312Z,6.90
2022-09-28T05:03:04.268Z,6.87
2022-09-28T05:04:04.283Z,6.93
2022-09-28T05:05:04.293Z,7.00
2022-09-28T05:06:04.308Z,6.95
2022-09-28T05:07:04.318Z,7.03
2022-09-28T05:08:04.331Z,7.00
2022-09-28T05:09:04.345Z,7.00
2022-09-28T05:10:04.360Z,7.07
2022-09-28T05:11:04.368Z,7.01
2022-09-28T05:12:04.384Z,7.13
2022-09-28T05:13:04.394Z,7.08
2022-09-28T05:14:04.408Z,7.08
2022-09-28T05:15:04.421Z,7.22
2022-09-28T05:16:05.639Z,7.11
2022-09-28T05:17:04.450Z,7.19
2022-09-28T05:18:04.460Z,7.19
2022-09-28T05:19:04.471Z,7.25
2022-09-28T05:20:04.483Z,7.21
2022-09-28T05:21:04.496Z,7.25
2022-09-28T05:22:04.508Z,7.22
2022-09-28T05:23:04.523Z,7.29
2022-09-28T05:24:04.536Z,7.31
2022-09-28T05:25:04.547Z,7.29
2022-09-28T05:26:04.561Z,7.40
2022-09-28T05:27:04.575Z,7.46
2022-09-28T05:28:04.587Z,7.37
2022-09-28T05:29:04.600Z,7.39
2022-09-28T05:30:04.612Z,7.43
2022-09-28T05:31:04.628Z,7.39
2022-09-28T05:32:04.724Z,7.51
2022-09-28T05:33:04.651Z,7.53
2022-09-28T05:34:04.664Z,7.53
2022-09-28T05:35:04.682Z,7.53
2022-09-28T05:36:04.693Z,7.53
2022-09-28T05:37:04.704Z,7.56
2022-09-28T05:38:04.719Z,7.62
2022-09-28T05:39:04.732Z,7.64
2022-09-28T05:40:04.744Z,7.58
2022-09-28T05:41:06.813Z,7.70
2022-09-28T05:42:04.772Z,7.69
2022-09-28T05:43:04.782Z,7.70
2022-09-28T05:44:04.806Z,7.69
2022-09-28T05:45:04.809Z,7.72
2022-09-28T05:46:04.884Z,7.70
2022-09-28T05:47:04.835Z,7.67
2022-09-28T05:48:04.852Z,7.75
2022-09-28T05:49:04.863Z,7.75
2022-09-28T05:50:04.876Z,7.78
2022-09-28T05:51:04.890Z,7.81
2022-09-28T05:52:04.903Z,7.83
2022-09-28T05:53:04.916Z,7.90
2022-09-28T05:54:06.149Z,7.87
2022-09-28T05:55:04.942Z,7.84
2022-09-28T05:56:04.960Z,7.85
2022-09-28T05:57:04.968Z,7.93
2022-09-28T05:58:04.990Z,7.98
2022-09-28T05:59:04.995Z,8.08
2022-09-28T06:00:05.009Z,8.08
2022-09-28T06:01:05.115Z,8.16
2022-09-28T06:02:05.100Z,8.08
2022-09-28T06:03:08.671Z,8.18
2022-09-28T06:04:05.067Z,8.28
2022-09-28T06:05:05.088Z,8.28
2022-09-28T06:06:05.117Z,8.24
2022-09-28T06:07:05.109Z,8.27
2022-09-28T06:08:05.204Z,8.38
2022-09-28T06:09:05.142Z,8.42
2022-09-28T06:10:05.165Z,8.38
2022-09-28T06:11:05.171Z,8.38
2022-09-28T06:12:05.178Z,8.42
2022-09-28T06:13:05.189Z,8.41
2022-09-28T06:14:05.204Z,8.39
2022-09-28T06:15:05.217Z,8.46
2022-09-28T06:16:05.234Z,8.42
2022-09-28T06:17:05.327Z,8.49
2022-09-28T06:18:05.271Z,8.46
2022-09-28T06:19:05.276Z,8.39
2022-09-28T06:20:05.286Z,8.44
2022-09-28T06:21:05.301Z,8.35
2022-09-28T06:22:05.317Z,8.45
2022-09-28T06:23:05.329Z,8.52
2022-09-28T06:24:05.344Z,8.49
2022-09-28T06:25:05.359Z,8.50
2022-09-28T06:26:05.374Z,8.46
2022-09-28T06:27:05.386Z,8.46
2022-09-28T06:28:05.401Z,8.54
2022-09-28T06:29:05.416Z,8.44
2022-09-28T06:30:05.427Z,8.46
2022-09-28T06:31:05.498Z,8.49
2022-09-28T06:32:05.456Z,8.52
2022-09-28T06:33:05.473Z,8.44
2022-09-28T06:34:05.487Z,8.46
2022-09-28T06:35:05.501Z,8.35
2022-09-28T06:36:05.516Z,8.34
2022-09-28T06:37:05.529Z,8.38
2022-09-28T06:38:05.544Z,8.35
2022-09-28T06:39:05.555Z,8.38
2022-09-28T06:40:05.570Z,8.39
2022-09-28T06:41:05.612Z,8.41
2022-09-28T06:42:05.597Z,8.44
2022-09-28T06:43:05.610Z,8.32
2022-09-28T06:44:05.625Z,8.41
2022-09-28T06:45:05.640Z,8.31
2022-09-28T06:46:05.711Z,8.32
2022-09-28T06:47:05.667Z,8.28
2022-09-28T06:48:05.681Z,8.24
2022-09-28T06:49:05.699Z,8.26
2022-09-28T06:50:05.710Z,8.27
2022-09-28T06:51:05.725Z,8.28
2022-09-28T06:52:05.736Z,8.28
2022-09-28T06:53:05.749Z,8.26
2022-09-28T06:54:05.769Z,8.24
2022-09-28T06:55:05.780Z,8.31
2022-09-28T06:56:05.807Z,8.26
2022-09-28T06:57:05.809Z,8.26
2022-09-28T06:58:05.820Z,8.27
2022-09-28T06:59:05.832Z,8.32
2022-09-28T07:00:05.847Z,8.27
2022-09-28T07:01:05.934Z,8.27
2022-09-28T07:02:05.930Z,8.31
2022-09-28T07:03:05.890Z,8.24
2022-09-28T07:04:05.904Z,8.26
2022-09-28T07:05:05.919Z,8.27
2022-09-28T07:06:05.930Z,8.27
2022-09-28T07:07:05.943Z,8.27
2022-09-28T07:08:05.957Z,8.27
2022-09-28T07:09:18.096Z,8.24
2022-09-28T07:10:05.985Z,8.26
2022-09-28T07:11:05.999Z,8.34
2022-09-28T07:12:06.013Z,8.26
2022-09-28T07:13:07.410Z,8.39
2022-09-28T07:14:06.041Z,8.42
2022-09-28T07:15:06.055Z,8.38
2022-09-28T07:16:06.068Z,8.41
2022-09-28T07:17:13.574Z,8.38
2022-09-28T07:18:06.181Z,8.39
2022-09-28T07:19:06.109Z,8.50
2022-09-28T07:20:16.998Z,8.52
2022-09-28T07:21:06.227Z,8.49
2022-09-28T07:22:06.152Z,8.49
2022-09-28T07:23:17.540Z,8.53
2022-09-28T07:24:06.180Z,8.46
2022-09-28T07:25:06.193Z,8.50
2022-09-28T07:26:08.054Z,8.54
2022-09-28T07:27:06.219Z,8.63
2022-09-28T07:28:06.236Z,8.56
2022-09-28T07:29:06.249Z,8.60
2022-09-28T07:30:06.264Z,8.53
2022-09-28T07:31:06.346Z,8.56
2022-09-28T07:32:06.292Z,8.63
2022-09-28T07:33:06.310Z,8.64
2022-09-28T07:34:06.319Z,8.68
2022-09-28T07:35:06.334Z,8.71
2022-09-28T07:36:06.353Z,8.68
2022-09-28T07:37:06.365Z,8.74
2022-09-28T07:38:06.377Z,8.75
2022-09-28T07:39:06.390Z,8.79
2022-09-28T07:40:06.406Z,8.78
2022-09-28T07:41:06.463Z,8.77
2022-09-28T07:42:06.434Z,8.87
2022-09-28T07:43:06.448Z,8.96
2022-09-28T07:44:06.534Z,8.95
2022-09-28T07:45:06.478Z,8.93
2022-09-28T07:46:06.627Z,8.99
2022-09-28T07:47:06.506Z,8.92
2022-09-28T07:48:06.562Z,9.08
2022-09-28T07:49:09.778Z,9.13
2022-09-28T07:50:06.561Z,9.16
2022-09-28T07:51:06.564Z,9.13
2022-09-28T07:52:06.579Z,9.16
2022-09-28T07:53:06.597Z,9.18
2022-09-28T07:54:06.618Z,9.29
2022-09-28T07:55:07.401Z,9.24
2022-09-28T07:56:06.655Z,9.36
2022-09-28T07:57:06.654Z,9.34
2022-09-28T07:58:06.670Z,9.42
2022-09-28T07:59:06.684Z,9.44
2022-09-28T08:00:06.699Z,9.49
2022-09-28T08:01:06.806Z,9.48
2022-09-28T08:02:06.882Z,9.58
2022-09-28T08:03:06.744Z,9.59
2022-09-28T08:04:06.760Z,9.62
2022-09-28T08:05:06.776Z,9.69
2022-09-28T08:06:06.797Z,9.70
2022-09-28T08:07:06.807Z,9.77
2022-09-28T08:08:06.825Z,9.76
2022-09-28T08:09:06.839Z,9.72
2022-09-28T08:10:06.856Z,9.82
2022-09-28T08:11:06.871Z,9.90
2022-09-28T08:12:06.885Z,9.88
2022-09-28T08:13:08.681Z,9.87
2022-09-28T08:14:06.919Z,9.95
2022-09-28T08:15:06.933Z,9.99
2022-09-28T08:16:06.948Z,9.94
2022-09-28T08:17:06.966Z,10.05
2022-09-28T08:18:06.979Z,10.17
2022-09-28T08:19:07.016Z,10.17
2022-09-28T08:20:07.027Z,10.10
2022-09-28T08:21:07.028Z,10.25
2022-09-28T08:22:07.045Z,10.24
2022-09-28T08:23:07.079Z,10.28
2022-09-28T08:24:07.083Z,10.34
2022-09-28T08:25:07.089Z,10.33
2022-09-28T08:26:07.109Z,10.43
2022-09-28T08:27:07.126Z,10.45
2022-09-28T08:28:07.143Z,10.59
2022-09-28T08:29:07.160Z,10.59
2022-09-28T08:30:07.175Z,10.69
2022-09-28T08:31:07.250Z,10.72
2022-09-28T08:32:07.208Z,10.77
2022-09-28T08:33:07.225Z,10.77
2022-09-28T08:34:07.245Z,10.82
2022-09-28T08:35:07.258Z,10.84
2022-09-28T08:36:07.278Z,10.94
2022-09-28T08:37:07.292Z,10.95
2022-09-28T08:38:07.308Z,10.98
2022-09-28T08:39:07.325Z,11.02
2022-09-28T08:40:07.345Z,11.13
2022-09-28T08:41:07.374Z,11.16
2022-09-28T08:42:07.388Z,11.19
2022-09-28T08:43:07.400Z,11.27
2022-09-28T08:44:07.419Z,11.37
2022-09-28T08:45:07.430Z,11.37
2022-09-28T08:46:07.516Z,11.44
2022-09-28T08:47:07.467Z,11.51
2022-09-28T08:48:07.482Z,11.44
2022-09-28T08:49:24.259Z,11.55
2022-09-28T08:50:07.519Z,11.58
2022-09-28T08:51:07.533Z,11.68
2022-09-28T08:52:07.555Z,11.68
2022-09-28T08:53:07.572Z,11.68
2022-09-28T08:54:10.979Z,11.73
2022-09-28T08:55:07.607Z,11.85
2022-09-28T08:56:07.625Z,11.88
2022-09-28T08:57:07.643Z,11.95
2022-09-28T08:58:07.662Z,12.00
2022-09-28T08:59:07.999Z,12.12
2022-09-28T09:00:11.076Z,12.08
2022-09-28T09:01:07.799Z,12.08
2022-09-28T09:02:07.748Z,12.11
2022-09-28T09:03:07.752Z,12.21
2022-09-28T09:04:07.770Z,12.26
2022-09-28T09:05:07.794Z,12.35
2022-09-28T09:06:07.808Z,12.51
2022-09-28T09:07:07.828Z,12.55
2022-09-28T09:08:07.867Z,12.62
2022-09-28T09:09:07.863Z,12.66
2022-09-28T09:10:07.952Z,12.68
2022-09-28T09:11:07.900Z,12.68
2022-09-28T09:12:07.921Z,12.73
2022-09-28T09:13:07.939Z,12.75
2022-09-28T09:14:07.958Z,12.75
2022-09-28T09:15:07.977Z,12.70
2022-09-28T09:16:07.996Z,12.86
2022-09-28T09:17:08.031Z,12.84
2022-09-28T09:18:08.032Z,12.87
2022-09-28T09:19:08.049Z,12.90
2022-09-28T09:20:08.144Z,12.83
2022-09-28T09:21:08.088Z,12.93
2022-09-28T09:22:08.108Z,12.95
2022-09-28T09:23:08.125Z,12.99
2022-09-28T09:24:08.144Z,13.03
2022-09-28T09:25:08.165Z,12.94
2022-09-28T09:26:08.183Z,12.99
2022-09-28T09:27:08.209Z,12.94
2022-09-28T09:28:08.224Z,13.01
2022-09-28T09:29:08.241Z,13.03
2022-09-28T09:30:08.288Z,13.02
2022-09-28T09:31:08.325Z,12.98
2022-09-28T09:32:08.296Z,12.99
2022-09-28T09:33:08.315Z,12.99
2022-09-28T09:34:08.335Z,12.99
2022-09-28T09:35:08.351Z,13.03
2022-09-28T09:36:08.373Z,13.08
2022-09-28T09:37:08.395Z,13.02
2022-09-28T09:38:08.409Z,13.08
2022-09-28T09:39:08.427Z,13.05
2022-09-28T09:40:08.494Z,12.95
2022-09-28T09:41:08.574Z,13.05
2022-09-28T09:42:08.484Z,12.98
2022-09-28T09:43:08.502Z,13.17
2022-09-28T09:44:08.524Z,13.12
2022-09-28T09:45:08.540Z,13.02
2022-09-28T09:46:08.605Z,13.16
2022-09-28T09:47:08.580Z,13.17
2022-09-28T09:48:08.598Z,13.12
2022-09-28T09:49:08.616Z,13.09
2022-09-28T09:50:09.204Z,13.20
2022-09-28T09:51:08.657Z,13.13
2022-09-28T09:52:08.673Z,13.21
2022-09-28T09:53:08.699Z,13.27
2022-09-28T09:54:08.712Z,13.31
2022-09-28T09:55:08.730Z,13.23
2022-09-28T09:56:08.749Z,13.23
2022-09-28T09:57:08.768Z,13.28
2022-09-28T09:58:08.787Z,13.30
2022-09-28T09:59:08.806Z,13.26
2022-09-28T10:00:08.824Z,13.28
2022-09-28T10:01:08.884Z,13.23
2022-09-28T10:02:11.621Z,13.17
2022-09-28T10:03:08.884Z,13.27
2022-09-28T10:04:08.925Z,13.28
2022-09-28T10:05:08.925Z,13.40
2022-09-28T10:06:08.946Z,13.31
2022-09-28T10:07:08.958Z,13.33
2022-09-28T10:08:08.979Z,13.31
2022-09-28T10:09:09.011Z,13.43
2022-09-28T10:10:09.014Z,13.58
2022-09-28T10:11:09.033Z,13.50
2022-09-28T10:12:09.053Z,13.49
2022-09-28T10:13:09.073Z,13.55
2022-09-28T10:14:09.094Z,13.54
2022-09-28T10:15:09.109Z,13.68
2022-09-28T10:16:09.131Z,13.64
2022-09-28T10:17:09.209Z,13.54
2022-09-28T10:18:09.169Z,13.67
2022-09-28T10:19:09.187Z,13.70
2022-09-28T10:20:09.211Z,13.52
2022-09-28T10:21:09.228Z,13.54
2022-09-28T10:22:09.244Z,13.50
2022-09-28T10:23:09.263Z,13.47
2022-09-28T10:24:09.284Z,13.43
2022-09-28T10:25:09.301Z,13.42
2022-09-28T10:26:09.326Z,13.40
2022-09-28T10:27:09.340Z,13.33
2022-09-28T10:28:09.362Z,13.33
2022-09-28T10:29:09.379Z,13.31
2022-09-28T10:30:09.399Z,13.33
2022-09-28T10:32:09.435Z,13.26
2022-09-28T10:33:09.455Z,13.27
2022-09-28T10:34:09.473Z,13.30
2022-09-28T10:35:09.492Z,13.28
2022-09-28T10:36:09.511Z,13.24
2022-09-28T10:37:09.529Z,13.19
2022-09-28T10:38:09.549Z,13.24
2022-09-28T10:39:09.567Z,13.13
2022-09-28T10:40:09.585Z,13.13
2022-09-28T10:41:09.644Z,13.21
2022-09-28T10:42:09.624Z,13.08
2022-09-28T10:43:09.641Z,13.06
2022-09-28T10:44:09.660Z,13.12
2022-09-28T10:45:09.678Z,13.03
2022-09-28T10:46:09.745Z,13.02
2022-09-28T10:47:09.714Z,13.01
2022-09-28T10:48:09.734Z,12.91
2022-09-28T10:49:09.753Z,12.95
2022-09-28T10:50:09.774Z,12.86
2022-09-28T10:51:09.790Z,12.86
2022-09-28T10:52:09.809Z,12.86
2022-09-28T10:53:09.829Z,12.86
2022-09-28T10:54:09.845Z,12.75
2022-09-28T10:55:09.861Z,12.69
2022-09-28T10:56:09.881Z,12.72
2022-09-28T10:57:13.373Z,12.78
2022-09-28T10:58:09.918Z,12.68
2022-09-28T10:59:09.935Z,12.84
2022-09-28T11:00:09.952Z,12.75
2022-09-28T11:01:10.025Z,12.76
2022-09-28T11:02:10.036Z,12.70
2022-09-28T11:03:10.009Z,12.88
2022-09-28T11:04:10.026Z,12.76
2022-09-28T11:05:10.042Z,12.84
2022-09-28T11:06:10.062Z,12.80
2022-09-28T11:07:10.640Z,12.80
2022-09-28T11:08:10.098Z,12.76
2022-09-28T11:09:10.140Z,12.75
2022-09-28T11:10:10.134Z,12.69
2022-09-28T11:11:10.153Z,12.68
2022-09-28T11:12:10.177Z,12.70
2022-09-28T11:13:10.197Z,12.69
2022-09-28T11:14:10.205Z,12.68
2022-09-28T11:15:10.223Z,12.68
2022-09-28T11:16:10.240Z,12.66
2022-09-28T11:17:10.259Z,12.55
2022-09-28T11:18:10.299Z,12.57
2022-09-28T11:19:10.352Z,12.58
2022-09-28T11:20:10.314Z,12.47
2022-09-28T11:21:12.792Z,12.47
2022-09-28T11:22:12.996Z,12.40
2022-09-28T11:23:10.367Z,12.40
2022-09-28T11:24:10.406Z,12.35
2022-09-28T11:25:10.404Z,12.36
2022-09-28T11:26:13.687Z,12.36
2022-09-28T11:27:10.437Z,12.30
2022-09-28T11:28:10.456Z,12.29
2022-09-28T11:29:10.473Z,12.26
2022-09-28T11:30:10.491Z,12.29
2022-09-28T11:31:10.531Z,12.23
2022-09-28T11:32:14.911Z,12.26
2022-09-28T11:33:10.544Z,12.28
2022-09-28T11:34:10.613Z,12.26
2022-09-28T11:35:10.578Z,12.21
2022-09-28T11:36:10.599Z,12.28
2022-09-28T11:37:10.618Z,12.28
2022-09-28T11:38:10.634Z,12.30
2022-09-28T11:39:10.687Z,12.29
2022-09-28T11:40:10.670Z,12.33
2022-09-28T11:41:10.686Z,12.44
2022-09-28T11:42:15.513Z,12.29
2022-09-28T11:43:12.297Z,12.36
2022-09-28T11:44:10.784Z,12.32
2022-09-28T11:45:10.756Z,12.32
2022-09-28T11:46:10.799Z,12.37
2022-09-28T11:47:10.791Z,12.40
2022-09-28T11:48:10.811Z,12.44
2022-09-28T11:49:10.827Z,12.40
2022-09-28T11:50:10.853Z,12.45
2022-09-28T11:51:10.880Z,12.37
2022-09-28T11:52:10.881Z,12.45
2022-09-28T11:53:10.900Z,12.40
2022-09-28T11:54:10.937Z,12.40
2022-09-28T11:55:10.945Z,12.39
2022-09-28T11:56:10.954Z,12.44
2022-09-28T11:57:10.972Z,12.37
2022-09-28T11:58:10.988Z,12.40
2022-09-28T11:59:11.007Z,12.51
2022-09-28T12:00:11.043Z,12.50
2022-09-28T12:01:11.456Z,12.43
2022-09-28T12:02:11.185Z,12.44
2022-09-28T12:03:11.155Z,12.44
2022-09-28T12:04:11.120Z,12.44
2022-09-28T12:05:11.112Z,12.39
2022-09-28T12:06:11.132Z,12.40
2022-09-28T12:07:11.149Z,12.45
2022-09-28T12:08:11.169Z,12.43
2022-09-28T12:09:11.242Z,12.53
2022-09-28T12:10:11.206Z,12.53
2022-09-28T12:11:11.220Z,12.45
2022-09-28T12:12:11.237Z,12.45
2022-09-28T12:13:11.258Z,12.40
2022-09-28T12:14:11.275Z,12.44
2022-09-28T12:15:11.291Z,12.44
2022-09-28T12:16:32.744Z,12.36
2022-09-28T12:17:11.378Z,12.40
2022-09-28T12:18:11.438Z,12.44
2022-09-28T12:19:11.424Z,12.55
2022-09-28T12:20:11.385Z,12.54
2022-09-28T12:21:11.400Z,12.51
2022-09-28T12:22:11.419Z,12.53
2022-09-28T12:23:11.434Z,12.61
2022-09-28T12:24:11.456Z,12.61
2022-09-28T12:25:11.471Z,12.66
2022-09-28T12:26:11.490Z,12.66
2022-09-28T12:27:11.508Z,12.61
2022-09-28T12:28:11.523Z,12.66
2022-09-28T12:29:11.577Z,12.61
2022-09-28T12:30:11.561Z,12.68
2022-09-28T12:31:11.620Z,12.61
2022-09-28T12:32:11.599Z,12.66
2022-09-28T12:33:11.614Z,12.65
2022-09-28T12:34:11.633Z,12.55
2022-09-28T12:35:11.651Z,12.62
2022-09-28T12:36:11.671Z,12.58
2022-09-28T12:37:11.687Z,12.58
2022-09-28T12:38:11.705Z,12.40
2022-09-28T12:39:27.071Z,12.36
2022-09-28T12:40:11.740Z,12.45
2022-09-28T12:41:11.759Z,12.44
2022-09-28T12:42:11.778Z,12.47
2022-09-28T12:43:11.795Z,12.36
2022-09-28T12:44:11.812Z,12.43
2022-09-28T12:45:11.831Z,12.40
2022-09-28T12:46:12.802Z,12.45
2022-09-28T12:47:11.922Z,12.36
2022-09-28T12:48:11.884Z,12.39
2022-09-28T12:51:11.940Z,12.37
2022-09-28T12:52:11.954Z,12.43
2022-09-28T12:53:11.974Z,12.37
2022-09-28T12:54:12.034Z,12.37
2022-09-28T12:55:12.012Z,12.35
2022-09-28T12:56:12.029Z,12.40
2022-09-28T12:57:12.044Z,12.37
2022-09-28T12:58:12.061Z,12.36
2022-09-28T12:59:12.083Z,12.40
2022-09-28T13:00:12.129Z,12.44
2022-09-28T13:01:12.145Z,12.44
2022-09-28T13:02:12.187Z,12.48
2022-09-28T13:03:12.166Z,12.51
2022-09-28T13:04:13.461Z,12.54
2022-09-28T13:05:12.185Z,12.51
2022-09-28T13:06:12.204Z,12.57
2022-09-28T13:07:12.222Z,12.54
2022-09-28T13:08:12.239Z,12.55
2022-09-28T13:09:12.257Z,12.65
2022-09-28T13:10:12.284Z,12.54
2022-09-28T13:11:12.302Z,12.51